createdAt,value
2019-03-28T00:01:38.749Z,103628.12
2019-03-28T00:04:07.867Z,103638.17
2019-03-28T00:06:36.839Z,103630.30
2019-03-28T00:09:08.166Z,103627.67
2019-03-28T00:11:37.934Z,103630.80
2019-03-28T00:14:10.596Z,103630.75
2019-03-28T00:16:42.071Z,103629.86
2019-03-28T00:19:12.634Z,103621.53
2019-03-28T00:21:41.756Z,103621.52
2019-03-28T00:24:24.165Z,103626.34
2019-03-28T00:26:53.543Z,103635.05
2019-03-28T00:29:24.395Z,103623.23
2019-03-28T00:31:53.674Z,103623.23
2019-03-28T00:34:24.242Z,103632.85
2019-03-28T00:36:53.583Z,103632.87
2019-03-28T00:39:22.733Z,103632.85
2019-03-28T00:41:54.494Z,103625.85
2019-03-28T00:44:25.308Z,103623.23
2019-03-28T00:46:55.902Z,103624.14
2019-03-28T00:49:25.015Z,103614.55
2019-03-28T00:51:54.381Z,103623.71
2019-03-28T00:54:23.846Z,103604.50
2019-03-28T00:56:54.764Z,103611.44
2019-03-28T00:59:24.308Z,103610.16
2019-03-28T01:01:53.643Z,103614.55
2019-03-28T01:04:24.041Z,103604.55
2019-03-28T01:06:52.914Z,103611.16
2019-03-28T01:09:22.805Z,103607.62
2019-03-28T01:11:51.495Z,103603.23
2019-03-28T01:14:21.381Z,103599.75
2019-03-28T01:16:50.141Z,103588.84
2019-03-28T01:19:19.022Z,103595.41
2019-03-28T01:21:47.690Z,103603.23
2019-03-28T01:24:16.612Z,103598.91
2019-03-28T01:26:56.653Z,103595.41
2019-03-28T01:29:16.254Z,103595.08
2019-03-28T01:31:44.915Z,103598.63
2019-03-28T01:34:13.630Z,103593.81
2019-03-28T01:36:42.499Z,103593.56
2019-03-28T01:39:11.166Z,103595.64
2019-03-28T01:41:39.877Z,103593.18
2019-03-28T01:44:09.094Z,103587.03
2019-03-28T01:46:38.002Z,103588.67
2019-03-28T01:49:06.676Z,103592.38
2019-03-28T01:51:35.573Z,103591.41
2019-03-28T01:54:04.705Z,103588.19
2019-03-28T01:56:33.390Z,103590.39
2019-03-28T01:59:02.361Z,103585.95
2019-03-28T02:01:31.248Z,103587.31
2019-03-28T02:03:59.906Z,103589.63
2019-03-28T02:06:28.594Z,103587.58
2019-03-28T02:08:57.484Z,103588.41
2019-03-28T02:11:26.319Z,103584.88
2019-03-28T02:13:55.042Z,103593.98
2019-03-28T02:16:27.692Z,103591.96
2019-03-28T02:18:56.574Z,103596.87
2019-03-28T02:21:25.998Z,103597.28
2019-03-28T02:23:56.010Z,103596.39
2019-03-28T02:26:24.915Z,103602.05
2019-03-28T02:28:53.738Z,103596.88
2019-03-28T02:31:22.594Z,103599.68
2019-03-28T02:33:51.685Z,103595.92
2019-03-28T02:36:20.369Z,103595.18
2019-03-28T02:38:49.069Z,103598.20
2019-03-28T02:41:17.962Z,103595.26
2019-03-28T02:43:46.627Z,103597.42
2019-03-28T02:46:15.454Z,103593.33
2019-03-28T02:48:44.184Z,103600.30
2019-03-28T02:51:13.205Z,103598.70
2019-03-28T02:53:41.893Z,103597.11
2019-03-28T02:56:10.866Z,103598.75
2019-03-28T02:58:39.631Z,103600.67
2019-03-28T03:01:08.513Z,103586.52
2019-03-28T03:03:37.195Z,103587.69
2019-03-28T03:06:07.764Z,103588.08
2019-03-28T03:08:37.469Z,103585.51
2019-03-28T03:11:06.161Z,103593.77
2019-03-28T03:13:35.035Z,103599.11
2019-03-28T03:16:03.708Z,103602.63
2019-03-28T03:18:33.736Z,103605.45
2019-03-28T03:21:06.650Z,103602.65
2019-03-28T03:23:35.404Z,103603.16
2019-03-28T03:26:04.099Z,103608.77
2019-03-28T03:28:32.895Z,103609.14
2019-03-28T03:31:01.572Z,103611.50
2019-03-28T03:33:30.495Z,103608.28
2019-03-28T03:35:59.367Z,103602.65
2019-03-28T03:38:28.103Z,103602.95
2019-03-28T03:40:56.962Z,103601.61
2019-03-28T03:43:25.835Z,103604.55
2019-03-28T03:45:54.549Z,103602.44
2019-03-28T03:48:23.448Z,103603.77
2019-03-28T03:50:52.134Z,103613.05
2019-03-28T03:53:20.823Z,103613.48
2019-03-28T03:55:49.732Z,103612.61
2019-03-28T03:58:18.893Z,103607.91
2019-03-28T04:00:47.939Z,103608.28
2019-03-28T04:03:16.942Z,103606.14
2019-03-28T04:05:45.615Z,103604.75
2019-03-28T04:08:14.445Z,103602.50
2019-03-28T04:10:43.301Z,103603.83
2019-03-28T04:13:11.994Z,103605.04
2019-03-28T04:15:40.692Z,103601.94
2019-03-28T04:18:09.547Z,103605.41
2019-03-28T04:20:38.235Z,103599.25
2019-03-28T04:23:12.082Z,103603.62
2019-03-28T04:25:40.786Z,103607.57
2019-03-28T04:28:09.478Z,103615.23
2019-03-28T04:30:38.344Z,103613.40
2019-03-28T04:33:07.018Z,103609.80
2019-03-28T04:35:35.911Z,103606.00
2019-03-28T04:38:04.820Z,103603.77
2019-03-28T04:40:34.425Z,103610.33
2019-03-28T04:43:03.635Z,103610.30
2019-03-28T04:45:32.322Z,103609.45
2019-03-28T04:48:01.523Z,103608.16
2019-03-28T04:50:30.495Z,103607.37
2019-03-28T04:52:59.211Z,103611.30
2019-03-28T04:55:32.640Z,103614.48
2019-03-28T04:58:01.420Z,103622.81
2019-03-28T05:00:30.283Z,103625.11
2019-03-28T05:02:58.977Z,103622.59
2019-03-28T05:05:27.887Z,103630.13
2019-03-28T05:07:56.583Z,103629.73
2019-03-28T05:10:25.465Z,103625.81
2019-03-28T05:12:54.156Z,103629.74
2019-03-28T05:15:23.077Z,103627.61
2019-03-28T05:17:52.053Z,103633.72
2019-03-28T05:20:20.790Z,103630.66
2019-03-28T05:22:49.475Z,103629.41
2019-03-28T05:25:18.339Z,103630.30
2019-03-28T05:27:48.999Z,103632.44
2019-03-28T05:30:17.745Z,103639.44
2019-03-28T05:32:46.528Z,103640.73
2019-03-28T05:35:15.339Z,103639.43
2019-03-28T05:37:44.017Z,103640.70
2019-03-28T05:40:13.139Z,103644.63
2019-03-28T05:42:41.871Z,103645.45
2019-03-28T05:45:11.088Z,103641.52
2019-03-28T05:47:39.917Z,103644.08
2019-03-28T05:50:08.999Z,103642.72
2019-03-28T05:52:37.696Z,103650.05
2019-03-28T05:55:07.003Z,103640.81
2019-03-28T05:57:35.707Z,103645.12
2019-03-28T06:00:05.297Z,103652.00
2019-03-28T06:02:34.335Z,103652.80
2019-03-28T06:05:03.452Z,103647.05
2019-03-28T06:07:32.296Z,103648.67
2019-03-28T06:10:02.161Z,103647.28
2019-03-28T06:12:30.890Z,103651.58
2019-03-28T06:14:59.824Z,103655.38
2019-03-28T06:17:28.677Z,103658.41
2019-03-28T06:19:57.575Z,103661.83
2019-03-28T06:22:26.242Z,103664.30
2019-03-28T06:24:55.198Z,103668.16
2019-03-28T06:27:24.008Z,103664.13
2019-03-28T06:29:57.384Z,103665.83
2019-03-28T06:32:26.115Z,103675.73
2019-03-28T06:34:55.062Z,103679.59
2019-03-28T06:37:23.797Z,103679.56
2019-03-28T06:39:52.612Z,103678.03
2019-03-28T06:42:21.438Z,103685.27
2019-03-28T06:44:50.311Z,103676.63
2019-03-28T06:47:21.053Z,103689.59
2019-03-28T06:49:50.090Z,103692.83
2019-03-28T06:52:18.801Z,103695.11
2019-03-28T06:54:47.653Z,103691.42
2019-03-28T06:57:18.859Z,103696.17
2019-03-28T06:59:46.954Z,103692.43
2019-03-28T07:02:15.861Z,103688.70
2019-03-28T07:04:44.755Z,103680.08
2019-03-28T07:07:13.456Z,103679.87
2019-03-28T07:09:42.362Z,103676.04
2019-03-28T07:12:11.049Z,103679.12
2019-03-28T07:14:39.933Z,103676.98
2019-03-28T07:17:08.724Z,103668.15
2019-03-28T07:19:37.525Z,103674.86
2019-03-28T07:22:06.222Z,103672.06
2019-03-28T07:24:34.976Z,103681.47
2019-03-28T07:27:03.803Z,103684.17
2019-03-28T07:29:32.542Z,103684.20
2019-03-28T07:32:01.270Z,103685.11
2019-03-28T07:34:30.078Z,103682.39
2019-03-28T07:36:58.767Z,103684.97
2019-03-28T07:39:27.657Z,103684.88
2019-03-28T07:41:56.650Z,103679.68
2019-03-28T07:44:25.548Z,103683.77
2019-03-28T07:46:54.261Z,103690.61
2019-03-28T07:49:23.123Z,103684.14
2019-03-28T07:51:51.830Z,103684.42
2019-03-28T07:54:20.591Z,103688.59
2019-03-28T07:56:49.523Z,103689.02
2019-03-28T07:59:18.595Z,103693.45
2019-03-28T08:01:47.310Z,103688.17
2019-03-28T08:04:16.202Z,103690.45
2019-03-28T08:06:50.145Z,103691.35
2019-03-28T08:09:17.571Z,103690.95
2019-03-28T08:11:48.272Z,103693.64
2019-03-28T08:14:16.984Z,103688.88
2019-03-28T08:16:45.680Z,103690.03
2019-03-28T08:19:14.568Z,103691.08
2019-03-28T08:21:43.259Z,103694.22
2019-03-28T08:24:11.994Z,103686.45
2019-03-28T08:26:40.822Z,103692.53
2019-03-28T08:29:09.528Z,103698.08
2019-03-28T08:31:40.967Z,103699.59
2019-03-28T08:34:10.085Z,103696.53
2019-03-28T08:36:39.016Z,103700.31
2019-03-28T08:39:08.093Z,103712.74
2019-03-28T08:41:36.754Z,103704.95
2019-03-28T08:44:07.322Z,103707.20
2019-03-28T08:46:36.305Z,103706.70
2019-03-28T08:49:05.230Z,103708.09
2019-03-28T08:51:34.131Z,103704.92
2019-03-28T08:54:03.046Z,103711.22
2019-03-28T08:56:31.887Z,103710.58
2019-03-28T08:59:00.591Z,103712.78
2019-03-28T09:01:31.262Z,103703.55
2019-03-28T09:04:00.107Z,103711.64
2019-03-28T09:06:30.819Z,103711.76
2019-03-28T09:08:59.655Z,103703.74
2019-03-28T09:11:28.522Z,103701.11
2019-03-28T09:13:57.204Z,103704.80
2019-03-28T09:16:25.945Z,103711.05
2019-03-28T09:18:54.800Z,103706.62
2019-03-28T09:21:23.594Z,103710.31
2019-03-28T09:23:52.499Z,103715.39
2019-03-28T09:26:21.331Z,103705.20
2019-03-28T09:28:50.281Z,103698.98
2019-03-28T09:31:20.439Z,103710.13
2019-03-28T09:33:49.505Z,103709.40
2019-03-28T09:36:18.174Z,103706.48
2019-03-28T09:38:46.878Z,103705.33
2019-03-28T09:41:15.873Z,103703.42
2019-03-28T09:43:55.218Z,103698.85
2019-03-28T09:46:15.409Z,103706.42
2019-03-28T09:48:44.136Z,103705.91
2019-03-28T09:51:12.829Z,103705.69
2019-03-28T09:53:41.674Z,103700.25
2019-03-28T09:56:10.579Z,103699.84
2019-03-28T09:58:39.234Z,103701.52
2019-03-28T10:01:08.156Z,103697.71
2019-03-28T10:03:37.059Z,103701.86
2019-03-28T10:06:05.803Z,103702.14
2019-03-28T10:08:34.472Z,103709.45
2019-03-28T10:11:03.444Z,103710.05
2019-03-28T10:13:32.292Z,103713.94
2019-03-28T10:16:01.154Z,103717.73
2019-03-28T10:18:30.343Z,103715.30
2019-03-28T10:20:59.321Z,103712.39
2019-03-28T10:23:28.006Z,103711.28
2019-03-28T10:25:57.106Z,103716.11
2019-03-28T10:28:25.798Z,103706.22
2019-03-28T10:30:54.666Z,103708.03
2019-03-28T10:33:24.564Z,103707.75
2019-03-28T10:35:53.401Z,103704.70
2019-03-28T10:38:22.308Z,103702.92
2019-03-28T10:40:51.198Z,103716.20
2019-03-28T10:43:21.464Z,103703.09
2019-03-28T10:45:51.391Z,103705.41
2019-03-28T10:48:23.358Z,103709.56
2019-03-28T10:50:51.073Z,103705.65
2019-03-28T10:53:19.769Z,103710.70
2019-03-28T10:55:48.611Z,103710.13
2019-03-28T10:58:19.385Z,103710.23
2019-03-28T11:00:48.232Z,103715.34
2019-03-28T11:03:16.928Z,103709.42
2019-03-28T11:05:45.765Z,103712.09
2019-03-28T11:08:14.568Z,103707.21
2019-03-28T11:10:43.271Z,103696.86
2019-03-28T11:13:11.954Z,103700.30
2019-03-28T11:15:40.839Z,103696.27
2019-03-28T11:18:09.623Z,103702.11
2019-03-28T11:20:40.072Z,103700.23
2019-03-28T11:23:09.065Z,103705.31
2019-03-28T11:25:37.737Z,103702.52
2019-03-28T11:28:06.442Z,103697.84
2019-03-28T11:30:35.516Z,103700.17
2019-03-28T11:33:06.442Z,103696.38
2019-03-28T11:35:35.005Z,103703.00
2019-03-28T11:38:03.866Z,103699.26
2019-03-28T11:40:32.759Z,103688.13
2019-03-28T11:43:01.470Z,103696.87
2019-03-28T11:45:34.962Z,103696.45
2019-03-28T11:48:03.934Z,103694.99
2019-03-28T11:50:32.635Z,103691.39
2019-03-28T11:53:01.341Z,103696.33
2019-03-28T11:55:30.217Z,103692.55
2019-03-28T11:57:58.900Z,103688.80
2019-03-28T12:00:27.903Z,103685.18
2019-03-28T12:02:56.905Z,103682.97
2019-03-28T12:05:25.789Z,103681.34
2019-03-28T12:07:54.498Z,103676.70
2019-03-28T12:10:23.205Z,103677.02
2019-03-28T12:12:52.286Z,103679.42
2019-03-28T12:15:20.986Z,103682.30
2019-03-28T12:17:49.688Z,103679.36
2019-03-28T12:20:18.552Z,103687.66
2019-03-28T12:22:47.460Z,103676.37
2019-03-28T12:25:16.153Z,103671.23
2019-03-28T12:27:44.866Z,103675.33
2019-03-28T12:30:16.229Z,103672.52
2019-03-28T12:32:45.181Z,103668.27
2019-03-28T12:35:13.898Z,103667.70
2019-03-28T12:37:42.766Z,103664.02
2019-03-28T12:40:12.693Z,103666.59
2019-03-28T12:42:41.384Z,103657.65
2019-03-28T12:45:12.259Z,103662.83
2019-03-28T12:47:42.686Z,103654.23
2019-03-28T12:50:12.888Z,103644.12
2019-03-28T12:52:41.579Z,103648.13
2019-03-28T12:55:10.687Z,103650.72
2019-03-28T12:57:39.547Z,103647.71
2019-03-28T13:00:09.271Z,103645.31
2019-03-28T13:02:37.945Z,103642.23
2019-03-28T13:05:08.264Z,103637.54
2019-03-28T13:07:37.164Z,103638.58
2019-03-28T13:10:07.272Z,103640.85
2019-03-28T13:12:35.979Z,103633.81
2019-03-28T13:15:06.564Z,103641.28
2019-03-28T13:17:35.626Z,103632.13
2019-03-28T13:20:05.788Z,103631.31
2019-03-28T13:22:34.689Z,103636.45
2019-03-28T13:25:03.981Z,103623.69
2019-03-28T13:27:34.630Z,103622.86
2019-03-28T13:30:04.489Z,103614.80
2019-03-28T13:32:41.571Z,103615.00
2019-03-28T13:35:04.755Z,103603.67
2019-03-28T13:37:33.582Z,103611.21
2019-03-28T13:40:02.389Z,103610.55
2019-03-28T13:42:31.165Z,103617.62
2019-03-28T13:45:00.151Z,103612.09
2019-03-28T13:47:29.110Z,103617.27
2019-03-28T13:49:58.115Z,103608.42
2019-03-28T13:52:26.966Z,103614.25
2019-03-28T13:54:55.648Z,103610.28
2019-03-28T13:57:24.329Z,103608.39
2019-03-28T13:59:53.142Z,103606.70
2019-03-28T14:02:21.797Z,103609.32
2019-03-28T14:04:50.480Z,103605.75
2019-03-28T14:07:19.363Z,103607.53
2019-03-28T14:09:48.310Z,103608.91
2019-03-28T14:12:16.976Z,103608.36
2019-03-28T14:14:45.783Z,103604.64
2019-03-28T14:17:14.478Z,103604.42
2019-03-28T14:19:43.265Z,103599.13
2019-03-28T14:22:11.974Z,103604.67
2019-03-28T14:24:43.458Z,103605.43
2019-03-28T14:27:12.296Z,103607.66
2019-03-28T14:29:41.002Z,103598.03
2019-03-28T14:32:09.678Z,103599.59
2019-03-28T14:34:39.954Z,103601.38
2019-03-28T14:37:08.794Z,103598.64
2019-03-28T14:39:37.482Z,103592.80
2019-03-28T14:42:06.636Z,103594.08
2019-03-28T14:44:35.302Z,103585.50
2019-03-28T14:47:05.303Z,103590.16
2019-03-28T14:49:34.252Z,103580.31
2019-03-28T14:52:04.136Z,103580.91
2019-03-28T14:54:33.235Z,103581.45
2019-03-28T14:57:02.845Z,103582.41
2019-03-28T14:59:34.607Z,103579.30
2019-03-28T15:02:03.700Z,103574.81
2019-03-28T15:04:32.516Z,103584.44
2019-03-28T15:07:03.040Z,103571.30
2019-03-28T15:09:33.326Z,103567.56
2019-03-28T15:12:02.153Z,103573.02
2019-03-28T15:14:30.863Z,103579.22
2019-03-28T15:17:00.782Z,103581.78
2019-03-28T15:19:29.642Z,103578.02
2019-03-28T15:21:58.430Z,103574.22
2019-03-28T15:24:27.339Z,103575.31
2019-03-28T15:26:55.999Z,103578.87
2019-03-28T15:29:24.935Z,103574.75
2019-03-28T15:31:53.599Z,103568.52
2019-03-28T15:34:22.287Z,103563.92
2019-03-28T15:36:51.410Z,103567.73
2019-03-28T15:39:21.829Z,103564.91
2019-03-28T15:41:50.501Z,103560.71
2019-03-28T15:44:19.184Z,103564.55
2019-03-28T15:46:48.105Z,103565.72
2019-03-28T15:49:16.897Z,103558.79
2019-03-28T15:51:45.619Z,103547.39
2019-03-28T15:54:14.487Z,103546.05
2019-03-28T15:56:43.201Z,103543.36
2019-03-28T15:59:16.208Z,103544.97
2019-03-28T16:01:45.233Z,103543.20
2019-03-28T16:04:14.110Z,103547.70
2019-03-28T16:06:45.868Z,103553.42
2019-03-28T16:09:18.103Z,103552.16
2019-03-28T16:11:45.317Z,103558.09
2019-03-28T16:14:14.124Z,103552.39
2019-03-28T16:16:42.968Z,103549.93
2019-03-28T16:19:11.667Z,103546.35
2019-03-28T16:21:40.503Z,103542.39
2019-03-28T16:24:09.229Z,103540.85
2019-03-28T16:26:37.921Z,103549.76
2019-03-28T16:29:08.107Z,103552.34
2019-03-28T16:31:36.813Z,103549.23
2019-03-28T16:34:07.228Z,103548.80
2019-03-28T16:36:36.238Z,103543.34
2019-03-28T16:39:06.723Z,103540.39
2019-03-28T16:41:35.576Z,103542.63
2019-03-28T16:44:04.662Z,103546.29
2019-03-28T16:46:33.386Z,103541.16
2019-03-28T16:49:04.010Z,103538.26
2019-03-28T16:51:32.895Z,103534.96
2019-03-28T16:54:02.715Z,103535.33
2019-03-28T16:56:31.400Z,103534.48
2019-03-28T16:59:00.286Z,103529.59
2019-03-28T17:01:29.294Z,103528.47
2019-03-28T17:03:58.175Z,103534.66
2019-03-28T17:06:27.179Z,103524.31
2019-03-28T17:08:57.206Z,103525.15
2019-03-28T17:11:27.227Z,103523.46
2019-03-28T17:13:55.916Z,103520.75
2019-03-28T17:16:24.605Z,103528.67
2019-03-28T17:18:53.500Z,103522.13
2019-03-28T17:21:23.419Z,103522.08
2019-03-28T17:23:52.350Z,103521.88
2019-03-28T17:26:21.287Z,103527.91
2019-03-28T17:28:49.975Z,103526.73
2019-03-28T17:31:18.988Z,103525.45
2019-03-28T17:33:47.971Z,103525.73
2019-03-28T17:36:16.638Z,103525.57
2019-03-28T17:38:46.576Z,103522.06
2019-03-28T17:41:15.578Z,103525.58
2019-03-28T17:43:44.408Z,103532.59
2019-03-28T17:46:13.347Z,103536.73
2019-03-28T17:48:42.043Z,103533.35
2019-03-28T17:51:10.959Z,103535.72
2019-03-28T17:53:39.855Z,103534.50
2019-03-28T17:56:08.750Z,103534.27
2019-03-28T17:58:37.453Z,103531.10
2019-03-28T18:01:07.068Z,103540.09
2019-03-28T18:03:35.941Z,103539.17
2019-03-28T18:06:04.692Z,103539.02
2019-03-28T18:08:33.415Z,103542.16
2019-03-28T18:11:04.278Z,103542.33
2019-03-28T18:13:33.175Z,103545.22
2019-03-28T18:16:02.734Z,103543.41
2019-03-28T18:18:31.954Z,103550.28
2019-03-28T18:21:02.340Z,103551.37
2019-03-28T18:23:32.812Z,103546.45
2019-03-28T18:26:01.819Z,103544.11
2019-03-28T18:28:31.670Z,103542.91
2019-03-28T18:31:00.594Z,103549.27
2019-03-28T18:33:29.458Z,103547.70
2019-03-28T18:35:58.114Z,103544.92
2019-03-28T18:38:27.059Z,103549.89
2019-03-28T18:40:58.474Z,103548.70
2019-03-28T18:43:27.625Z,103547.58
2019-03-28T18:45:56.525Z,103547.83
2019-03-28T18:48:29.534Z,103551.16
2019-03-28T18:50:56.653Z,103553.45
2019-03-28T18:53:25.451Z,103553.33
2019-03-28T18:55:55.169Z,103560.70
2019-03-28T18:58:25.711Z,103553.38
2019-03-28T19:00:54.853Z,103558.83
2019-03-28T19:03:23.753Z,103561.73
2019-03-28T19:05:52.746Z,103561.41
2019-03-28T19:08:21.444Z,103561.02
2019-03-28T19:10:51.570Z,103565.47
2019-03-28T19:13:20.411Z,103559.41
2019-03-28T19:15:49.812Z,103562.05
2019-03-28T19:18:18.949Z,103563.94
2019-03-28T19:20:47.740Z,103560.93
2019-03-28T19:23:16.549Z,103560.95
2019-03-28T19:25:47.098Z,103563.62
2019-03-28T19:28:28.229Z,103560.27
2019-03-28T19:30:46.691Z,103562.05
2019-03-28T19:33:16.635Z,103558.19
2019-03-28T19:35:47.757Z,103556.56
2019-03-28T19:38:17.000Z,103557.88
2019-03-28T19:40:46.101Z,103561.45
2019-03-28T19:43:20.802Z,103557.58
2019-03-28T19:45:45.560Z,103556.78
2019-03-28T19:48:14.613Z,103553.77
2019-03-28T19:50:43.311Z,103555.98
2019-03-28T19:53:12.398Z,103554.70
2019-03-28T19:55:41.135Z,103555.63
2019-03-28T19:58:13.743Z,103566.16
2019-03-28T20:00:43.845Z,103562.29
2019-03-28T20:03:13.152Z,103562.34
2019-03-28T20:05:47.977Z,103562.34
2019-03-28T20:08:15.809Z,103565.89
2019-03-28T20:10:43.410Z,103564.72
2019-03-28T20:13:12.259Z,103571.70
2019-03-28T20:15:43.486Z,103570.88
2019-03-28T20:18:13.465Z,103579.20
2019-03-28T20:20:42.315Z,103571.41
2019-03-28T20:23:11.037Z,103579.27
2019-03-28T20:25:42.647Z,103574.91
2019-03-28T20:28:10.455Z,103577.52
2019-03-28T20:30:39.436Z,103579.33
2019-03-28T20:33:08.643Z,103579.75
2019-03-28T20:35:37.520Z,103581.07
2019-03-28T20:38:06.219Z,103582.01
2019-03-28T20:40:35.111Z,103585.09
2019-03-28T20:43:03.776Z,103587.28
2019-03-28T20:45:32.479Z,103587.73
2019-03-28T20:48:01.393Z,103580.36
2019-03-28T20:50:31.858Z,103591.25
2019-03-28T20:53:03.970Z,103592.13
2019-03-28T20:55:34.248Z,103595.66
2019-03-28T20:58:03.132Z,103590.88
2019-03-28T21:00:41.631Z,103587.85
2019-03-28T21:03:10.417Z,103583.11
2019-03-28T21:05:39.492Z,103583.98
2019-03-28T21:08:08.388Z,103590.53
2019-03-28T21:10:37.330Z,103584.01
2019-03-28T21:13:06.190Z,103586.64
2019-03-28T21:15:34.905Z,103589.24
2019-03-28T21:18:07.370Z,103587.95
2019-03-28T21:20:36.782Z,103587.09
2019-03-28T21:23:05.659Z,103595.37
2019-03-28T21:25:34.541Z,103592.80
2019-03-28T21:28:03.449Z,103589.77
2019-03-28T21:30:32.341Z,103590.63
2019-03-28T21:33:01.063Z,103592.40
2019-03-28T21:35:29.739Z,103598.93
2019-03-28T21:37:58.610Z,103598.94
2019-03-28T21:40:27.749Z,103596.33
2019-03-28T21:42:56.796Z,103608.95
2019-03-28T21:45:25.518Z,103594.16
2019-03-28T21:47:55.323Z,103597.25
2019-03-28T21:50:25.302Z,103598.98
2019-03-28T21:52:55.910Z,103597.67
2019-03-28T21:55:26.605Z,103598.99
2019-03-28T21:57:55.724Z,103603.34
2019-03-28T22:00:24.584Z,103587.70
2019-03-28T22:02:53.279Z,103592.92
2019-03-28T22:05:22.068Z,103591.61
2019-03-28T22:07:50.778Z,103593.77
2019-03-28T22:10:19.658Z,103591.18
2019-03-28T22:12:48.417Z,103599.44
2019-03-28T22:15:17.311Z,103595.53
2019-03-28T22:17:46.254Z,103589.84
2019-03-28T22:20:15.168Z,103587.23
2019-03-28T22:22:43.837Z,103594.61
2019-03-28T22:25:12.931Z,103589.41
2019-03-28T22:27:41.618Z,103592.47
2019-03-28T22:30:10.968Z,103583.33
2019-03-28T22:32:39.810Z,103575.91
2019-03-28T22:35:08.990Z,103583.30
2019-03-28T22:37:38.070Z,103584.64
2019-03-28T22:40:07.745Z,103586.37
2019-03-28T22:42:36.673Z,103586.34
2019-03-28T22:45:07.330Z,103582.89
2019-03-28T22:47:36.132Z,103583.30
2019-03-28T22:50:05.973Z,103585.48
2019-03-28T22:52:36.228Z,103582.87
2019-03-28T22:55:06.313Z,103582.01
2019-03-28T22:57:38.077Z,103582.85
2019-03-28T23:00:08.772Z,103581.98
2019-03-28T23:02:37.627Z,103580.69
2019-03-28T23:05:08.344Z,103578.94
2019-03-28T23:07:37.242Z,103577.22
2019-03-28T23:10:09.263Z,103577.20
2019-03-28T23:12:38.092Z,103578.91
2019-03-28T23:15:07.757Z,103577.62
2019-03-28T23:17:36.670Z,103575.86
2019-03-28T23:20:07.099Z,103567.59
2019-03-28T23:22:35.769Z,103564.55
2019-03-28T23:25:05.514Z,103567.60
2019-03-28T23:27:34.239Z,103571.93
2019-03-28T23:30:03.289Z,103569.33
2019-03-28T23:32:33.397Z,103568.02
2019-03-28T23:35:02.242Z,103563.63
2019-03-28T23:37:30.958Z,103569.30
2019-03-28T23:39:59.794Z,103564.48
2019-03-28T23:42:28.483Z,103558.42
2019-03-28T23:44:57.126Z,103557.97
2019-03-28T23:47:26.015Z,103551.01
2019-03-28T23:49:54.724Z,103549.70
2019-03-28T23:52:23.364Z,103554.06
2019-03-28T23:54:52.805Z,103545.34
2019-03-28T23:57:21.558Z,103547.52
2019-03-28T23:59:50.221Z,103542.33
